sensor_id;sensor_type;location;lat;lon;timestamp;P1;durP1;ratioP1;P2;durP2;ratioP2
25069;SDS011;13064;48.162;11.536;2023-02-20T00:00:28;1.73;;;1.40;;
25069;SDS011;13064;48.162;11.536;2023-02-20T00:02:55;2.85;;;1.40;;
25069;SDS011;13064;48.162;11.536;2023-02-20T00:05:23;3.33;;;1.52;;
25069;SDS011;13064;48.162;11.536;2023-02-20T00:07:51;4.20;;;2.00;;
25069;SDS011;13064;48.162;11.536;2023-02-20T00:10:18;5.30;;;1.73;;
25069;SDS011;13064;48.162;11.536;2023-02-20T00:12:46;5.60;;;1.70;;
25069;SDS011;13064;48.162;11.536;2023-02-20T00:15:14;3.47;;;1.85;;
25069;SDS011;13064;48.162;11.536;2023-02-20T00:17:42;5.57;;;1.50;;
25069;SDS011;13064;48.162;11.536;2023-02-20T00:20:16;3.92;;;1.75;;
25069;SDS011;13064;48.162;11.536;2023-02-20T00:22:44;3.08;;;1.50;;
25069;SDS011;13064;48.162;11.536;2023-02-20T00:25:13;2.67;;;1.35;;
25069;SDS011;13064;48.162;11.536;2023-02-20T00:27:41;4.75;;;1.73;;
25069;SDS011;13064;48.162;11.536;2023-02-20T00:30:11;4.50;;;1.75;;
25069;SDS011;13064;48.162;11.536;2023-02-20T00:32:41;4.15;;;1.60;;
25069;SDS011;13064;48.162;11.536;2023-02-20T00:35:11;4.35;;;1.60;;
25069;SDS011;13064;48.162;11.536;2023-02-20T00:37:39;2.60;;;1.50;;
25069;SDS011;13064;48.162;11.536;2023-02-20T00:40:07;5.60;;;1.98;;
25069;SDS011;13064;48.162;11.536;2023-02-20T00:42:34;7.35;;;2.00;;
25069;SDS011;13064;48.162;11.536;2023-02-20T00:45:04;4.75;;;1.80;;
25069;SDS011;13064;48.162;11.536;2023-02-20T00:47:32;3.70;;;1.58;;
25069;SDS011;13064;48.162;11.536;2023-02-20T00:50:00;2.25;;;1.38;;
25069;SDS011;13064;48.162;11.536;2023-02-20T00:52:27;3.10;;;1.70;;
25069;SDS011;13064;48.162;11.536;2023-02-20T00:54:55;3.58;;;1.70;;
25069;SDS011;13064;48.162;11.536;2023-02-20T00:57:23;3.72;;;1.75;;
25069;SDS011;13064;48.162;11.536;2023-02-20T00:59:50;3.70;;;1.55;;
25069;SDS011;13064;48.162;11.536;2023-02-20T01:02:18;3.83;;;1.73;;
25069;SDS011;13064;48.162;11.536;2023-02-20T01:04:47;4.47;;;1.55;;
25069;SDS011;13064;48.162;11.536;2023-02-20T01:07:15;3.42;;;1.90;;
25069;SDS011;13064;48.162;11.536;2023-02-20T01:09:43;7.28;;;1.50;;
25069;SDS011;13064;48.162;11.536;2023-02-20T01:12:14;2.63;;;1.52;;
25069;SDS011;13064;48.162;11.536;2023-02-20T01:14:41;3.53;;;2.00;;
25069;SDS011;13064;48.162;11.536;2023-02-20T01:17:10;2.42;;;1.67;;
25069;SDS011;13064;48.162;11.536;2023-02-20T01:19:39;3.17;;;1.80;;
25069;SDS011;13064;48.162;11.536;2023-02-20T01:22:08;3.25;;;1.65;;
25069;SDS011;13064;48.162;11.536;2023-02-20T01:24:35;4.60;;;1.73;;
25069;SDS011;13064;48.162;11.536;2023-02-20T01:27:03;3.75;;;1.70;;
25069;SDS011;13064;48.162;11.536;2023-02-20T01:29:31;7.20;;;1.73;;
25069;SDS011;13064;48.162;11.536;2023-02-20T01:31:58;4.07;;;1.60;;
25069;SDS011;13064;48.162;11.536;2023-02-20T01:34:26;6.38;;;1.90;;
25069;SDS011;13064;48.162;11.536;2023-02-20T01:36:55;3.83;;;1.88;;
25069;SDS011;13064;48.162;11.536;2023-02-20T01:39:25;3.40;;;1.40;;
25069;SDS011;13064;48.162;11.536;2023-02-20T01:41:54;4.00;;;1.70;;
25069;SDS011;13064;48.162;11.536;2023-02-20T01:44:26;4.25;;;1.63;;
25069;SDS011;13064;48.162;11.536;2023-02-20T01:46:55;4.05;;;1.63;;
25069;SDS011;13064;48.162;11.536;2023-02-20T01:49:36;3.38;;;1.67;;
25069;SDS011;13064;48.162;11.536;2023-02-20T01:52:12;2.38;;;1.45;;
25069;SDS011;13064;48.162;11.536;2023-02-20T01:54:42;4.93;;;1.65;;
25069;SDS011;13064;48.162;11.536;2023-02-20T01:57:13;3.55;;;1.75;;
25069;SDS011;13064;48.162;11.536;2023-02-20T01:59:41;3.75;;;1.63;;
25069;SDS011;13064;48.162;11.536;2023-02-20T02:02:13;5.68;;;2.00;;
25069;SDS011;13064;48.162;11.536;2023-02-20T02:04:41;3.78;;;1.70;;
25069;SDS011;13064;48.162;11.536;2023-02-20T02:07:11;2.45;;;1.70;;
25069;SDS011;13064;48.162;11.536;2023-02-20T02:09:43;6.40;;;1.85;;
25069;SDS011;13064;48.162;11.536;2023-02-20T02:12:13;3.38;;;1.77;;
25069;SDS011;13064;48.162;11.536;2023-02-20T02:14:41;5.22;;;1.88;;
25069;SDS011;13064;48.162;11.536;2023-02-20T02:22:18;4.88;;;1.80;;
25069;SDS011;13064;48.162;11.536;2023-02-20T02:25:09;5.90;;;1.95;;
25069;SDS011;13064;48.162;11.536;2023-02-20T02:38:45;7.55;;;2.28;;
25069;SDS011;13064;48.162;11.536;2023-02-20T02:41:21;3.00;;;1.77;;
25069;SDS011;13064;48.162;11.536;2023-02-20T02:49:06;3.58;;;1.88;;
25069;SDS011;13064;48.162;11.536;2023-02-20T02:51:38;4.00;;;2.00;;
25069;SDS011;13064;48.162;11.536;2023-02-20T02:54:12;3.97;;;2.10;;
25069;SDS011;13064;48.162;11.536;2023-02-20T02:56:43;4.15;;;1.90;;
25069;SDS011;13064;48.162;11.536;2023-02-20T02:59:13;4.57;;;2.65;;
25069;SDS011;13064;48.162;11.536;2023-02-20T03:01:44;4.20;;;2.08;;
25069;SDS011;13064;48.162;11.536;2023-02-20T03:04:13;2.45;;;1.73;;
25069;SDS011;13064;48.162;11.536;2023-02-20T03:06:53;3.70;;;2.00;;
25069;SDS011;13064;48.162;11.536;2023-02-20T03:09:35;4.10;;;2.38;;
25069;SDS011;13064;48.162;11.536;2023-02-20T03:12:07;4.20;;;2.00;;
25069;SDS011;13064;48.162;11.536;2023-02-20T03:14:37;4.07;;;2.00;;
25069;SDS011;13064;48.162;11.536;2023-02-20T03:17:30;4.97;;;2.08;;
25069;SDS011;13064;48.162;11.536;2023-02-20T03:19:59;5.40;;;2.30;;
25069;SDS011;13064;48.162;11.536;2023-02-20T03:22:32;4.82;;;1.98;;
25069;SDS011;13064;48.162;11.536;2023-02-20T03:25:48;2.97;;;1.92;;
25069;SDS011;13064;48.162;11.536;2023-02-20T03:27:57;2.78;;;1.77;;
25069;SDS011;13064;48.162;11.536;2023-02-20T03:30:40;5.22;;;2.33;;
25069;SDS011;13064;48.162;11.536;2023-02-20T03:33:23;4.93;;;2.10;;
25069;SDS011;13064;48.162;11.536;2023-02-20T03:36:11;4.65;;;2.13;;
25069;SDS011;13064;48.162;11.536;2023-02-20T03:38:59;6.18;;;2.22;;
25069;SDS011;13064;48.162;11.536;2023-02-20T03:41:47;3.33;;;1.88;;
25069;SDS011;13064;48.162;11.536;2023-02-20T03:44:37;3.53;;;2.08;;
25069;SDS011;13064;48.162;11.536;2023-02-20T03:47:06;4.10;;;2.00;;
25069;SDS011;13064;48.162;11.536;2023-02-20T03:49:36;4.95;;;2.20;;
25069;SDS011;13064;48.162;11.536;2023-02-20T03:52:04;3.42;;;2.22;;
25069;SDS011;13064;48.162;11.536;2023-02-20T03:54:37;5.13;;;2.03;;
25069;SDS011;13064;48.162;11.536;2023-02-20T03:57:08;5.60;;;2.35;;
25069;SDS011;13064;48.162;11.536;2023-02-20T03:59:43;4.22;;;2.20;;
25069;SDS011;13064;48.162;11.536;2023-02-20T04:02:24;4.90;;;2.05;;
25069;SDS011;13064;48.162;11.536;2023-02-20T04:04:53;6.80;;;2.30;;
25069;SDS011;13064;48.162;11.536;2023-02-20T04:07:23;6.10;;;2.17;;
25069;SDS011;13064;48.162;11.536;2023-02-20T04:09:52;3.75;;;2.05;;
25069;SDS011;13064;48.162;11.536;2023-02-20T04:12:21;7.15;;;2.47;;
25069;SDS011;13064;48.162;11.536;2023-02-20T04:14:50;4.63;;;2.05;;
25069;SDS011;13064;48.162;11.536;2023-02-20T04:17:20;7.55;;;2.53;;
25069;SDS011;13064;48.162;11.536;2023-02-20T04:19:49;2.92;;;2.33;;
25069;SDS011;13064;48.162;11.536;2023-02-20T04:22:19;4.57;;;2.50;;
25069;SDS011;13064;48.162;11.536;2023-02-20T04:24:48;5.55;;;2.80;;
25069;SDS011;13064;48.162;11.536;2023-02-20T04:27:16;4.97;;;2.13;;
25069;SDS011;13064;48.162;11.536;2023-02-20T04:29:53;4.25;;;2.30;;
25069;SDS011;13064;48.162;11.536;2023-02-20T04:32:20;5.88;;;2.50;;
25069;SDS011;13064;48.162;11.536;2023-02-20T04:34:50;3.70;;;2.10;;
25069;SDS011;13064;48.162;11.536;2023-02-20T04:37:18;4.80;;;2.17;;
25069;SDS011;13064;48.162;11.536;2023-02-20T04:42:17;3.83;;;2.13;;
25069;SDS011;13064;48.162;11.536;2023-02-20T04:44:47;3.72;;;2.13;;
25069;SDS011;13064;48.162;11.536;2023-02-20T04:47:16;7.18;;;2.47;;
25069;SDS011;13064;48.162;11.536;2023-02-20T04:49:44;5.68;;;2.42;;
25069;SDS011;13064;48.162;11.536;2023-02-20T04:52:16;4.72;;;1.90;;
25069;SDS011;13064;48.162;11.536;2023-02-20T04:54:44;4.38;;;2.15;;
25069;SDS011;13064;48.162;11.536;2023-02-20T04:57:13;3.88;;;2.15;;
25069;SDS011;13064;48.162;11.536;2023-02-20T04:59:41;3.88;;;2.40;;
25069;SDS011;13064;48.162;11.536;2023-02-20T05:02:10;5.35;;;2.50;;
25069;SDS011;13064;48.162;11.536;2023-02-20T05:04:37;4.25;;;2.50;;
25069;SDS011;13064;48.162;11.536;2023-02-20T05:07:05;4.95;;;2.13;;
25069;SDS011;13064;48.162;11.536;2023-02-20T05:09:32;5.05;;;2.90;;
25069;SDS011;13064;48.162;11.536;2023-02-20T05:12:00;4.25;;;2.35;;
25069;SDS011;13064;48.162;11.536;2023-02-20T05:14:28;3.42;;;2.17;;
25069;SDS011;13064;48.162;11.536;2023-02-20T05:16:55;7.75;;;2.60;;
25069;SDS011;13064;48.162;11.536;2023-02-20T05:19:23;4.60;;;2.40;;
25069;SDS011;13064;48.162;11.536;2023-02-20T05:21:51;5.15;;;2.45;;
25069;SDS011;13064;48.162;11.536;2023-02-20T05:24:37;4.70;;;2.35;;
25069;SDS011;13064;48.162;11.536;2023-02-20T05:27:04;5.90;;;2.42;;
25069;SDS011;13064;48.162;11.536;2023-02-20T05:29:32;3.25;;;2.08;;
25069;SDS011;13064;48.162;11.536;2023-02-20T05:32:00;5.75;;;2.42;;
25069;SDS011;13064;48.162;11.536;2023-02-20T05:34:27;5.57;;;2.40;;
25069;SDS011;13064;48.162;11.536;2023-02-20T05:36:55;3.22;;;2.42;;
25069;SDS011;13064;48.162;11.536;2023-02-20T05:39:23;6.95;;;2.67;;
25069;SDS011;13064;48.162;11.536;2023-02-20T05:41:50;4.93;;;2.65;;
25069;SDS011;13064;48.162;11.536;2023-02-20T05:44:18;3.13;;;2.28;;
25069;SDS011;13064;48.162;11.536;2023-02-20T05:46:45;5.38;;;2.38;;
25069;SDS011;13064;48.162;11.536;2023-02-20T05:49:15;5.25;;;2.53;;
25069;SDS011;13064;48.162;11.536;2023-02-20T05:51:42;4.07;;;2.35;;
25069;SDS011;13064;48.162;11.536;2023-02-20T05:54:11;5.75;;;2.70;;
25069;SDS011;13064;48.162;11.536;2023-02-20T05:56:42;6.30;;;2.50;;
25069;SDS011;13064;48.162;11.536;2023-02-20T05:59:10;4.20;;;2.50;;
25069;SDS011;13064;48.162;11.536;2023-02-20T06:01:38;4.22;;;2.50;;
25069;SDS011;13064;48.162;11.536;2023-02-20T06:04:05;3.83;;;2.30;;
25069;SDS011;13064;48.162;11.536;2023-02-20T06:06:34;4.78;;;2.40;;
25069;SDS011;13064;48.162;11.536;2023-02-20T06:09:02;6.63;;;2.50;;
25069;SDS011;13064;48.162;11.536;2023-02-20T06:11:30;6.10;;;3.05;;
25069;SDS011;13064;48.162;11.536;2023-02-20T06:13:58;7.35;;;2.25;;
25069;SDS011;13064;48.162;11.536;2023-02-20T06:16:27;8.18;;;3.45;;
25069;SDS011;13064;48.162;11.536;2023-02-20T06:18:55;7.10;;;2.72;;
25069;SDS011;13064;48.162;11.536;2023-02-20T06:21:23;3.97;;;2.63;;
25069;SDS011;13064;48.162;11.536;2023-02-20T06:23:51;5.13;;;2.67;;
25069;SDS011;13064;48.162;11.536;2023-02-20T06:26:19;4.07;;;2.22;;
25069;SDS011;13064;48.162;11.536;2023-02-20T06:28:47;4.75;;;2.40;;
25069;SDS011;13064;48.162;11.536;2023-02-20T06:31:23;4.22;;;2.70;;
25069;SDS011;13064;48.162;11.536;2023-02-20T06:33:51;4.80;;;2.15;;
25069;SDS011;13064;48.162;11.536;2023-02-20T06:36:20;4.00;;;2.65;;
25069;SDS011;13064;48.162;11.536;2023-02-20T06:38:48;5.28;;;2.83;;
25069;SDS011;13064;48.162;11.536;2023-02-20T06:41:16;7.45;;;2.97;;
25069;SDS011;13064;48.162;11.536;2023-02-20T06:43:43;5.00;;;2.47;;
25069;SDS011;13064;48.162;11.536;2023-02-20T06:46:11;5.20;;;2.30;;
25069;SDS011;13064;48.162;11.536;2023-02-20T06:48:43;12.63;;;3.20;;
25069;SDS011;13064;48.162;11.536;2023-02-20T06:53:38;3.83;;;2.28;;
25069;SDS011;13064;48.162;11.536;2023-02-20T06:56:08;7.55;;;3.17;;
25069;SDS011;13064;48.162;11.536;2023-02-20T06:58:37;6.13;;;2.63;;
25069;SDS011;13064;48.162;11.536;2023-02-20T07:01:04;4.43;;;2.65;;
25069;SDS011;13064;48.162;11.536;2023-02-20T07:03:32;4.82;;;2.67;;
25069;SDS011;13064;48.162;11.536;2023-02-20T07:05:59;6.75;;;2.45;;
25069;SDS011;13064;48.162;11.536;2023-02-20T07:08:27;7.28;;;2.90;;
25069;SDS011;13064;48.162;11.536;2023-02-20T07:10:55;6.38;;;2.70;;
25069;SDS011;13064;48.162;11.536;2023-02-20T07:13:22;5.82;;;2.75;;
25069;SDS011;13064;48.162;11.536;2023-02-20T07:15:50;8.90;;;2.70;;
25069;SDS011;13064;48.162;11.536;2023-02-20T07:18:18;8.90;;;2.50;;
25069;SDS011;13064;48.162;11.536;2023-02-20T07:20:55;5.57;;;2.93;;
25069;SDS011;13064;48.162;11.536;2023-02-20T07:23:22;7.45;;;3.00;;
25069;SDS011;13064;48.162;11.536;2023-02-20T07:25:51;5.68;;;2.60;;
25069;SDS011;13064;48.162;11.536;2023-02-20T07:28:19;5.70;;;2.15;;
25069;SDS011;13064;48.162;11.536;2023-02-20T07:30:47;8.38;;;2.75;;
25069;SDS011;13064;48.162;11.536;2023-02-20T07:33:15;5.93;;;3.08;;
25069;SDS011;13064;48.162;11.536;2023-02-20T07:35:43;7.95;;;2.63;;
25069;SDS011;13064;48.162;11.536;2023-02-20T07:38:11;6.13;;;2.75;;
25069;SDS011;13064;48.162;11.536;2023-02-20T07:40:39;6.00;;;2.60;;
25069;SDS011;13064;48.162;11.536;2023-02-20T07:43:06;5.47;;;2.65;;
25069;SDS011;13064;48.162;11.536;2023-02-20T07:45:36;6.30;;;2.83;;
25069;SDS011;13064;48.162;11.536;2023-02-20T07:48:05;11.25;;;2.75;;
25069;SDS011;13064;48.162;11.536;2023-02-20T07:50:33;3.67;;;2.67;;
25069;SDS011;13064;48.162;11.536;2023-02-20T07:53:00;6.47;;;2.40;;
25069;SDS011;13064;48.162;11.536;2023-02-20T07:55:28;6.85;;;2.80;;
25069;SDS011;13064;48.162;11.536;2023-02-20T07:57:55;5.93;;;2.50;;
25069;SDS011;13064;48.162;11.536;2023-02-20T08:00:24;4.40;;;2.50;;
25069;SDS011;13064;48.162;11.536;2023-02-20T08:02:52;5.82;;;2.25;;
25069;SDS011;13064;48.162;11.536;2023-02-20T08:05:20;7.28;;;2.80;;
25069;SDS011;13064;48.162;11.536;2023-02-20T08:07:48;3.75;;;2.20;;
25069;SDS011;13064;48.162;11.536;2023-02-20T08:10:17;7.13;;;2.55;;
25069;SDS011;13064;48.162;11.536;2023-02-20T08:12:46;4.32;;;2.38;;
25069;SDS011;13064;48.162;11.536;2023-02-20T08:15:14;4.10;;;2.25;;
25069;SDS011;13064;48.162;11.536;2023-02-20T08:17:41;10.05;;;3.03;;
25069;SDS011;13064;48.162;11.536;2023-02-20T08:20:16;6.28;;;2.75;;
25069;SDS011;13064;48.162;11.536;2023-02-20T08:22:44;4.63;;;2.30;;
25069;SDS011;13064;48.162;11.536;2023-02-20T08:25:12;4.82;;;2.35;;
25069;SDS011;13064;48.162;11.536;2023-02-20T08:27:41;4.90;;;2.38;;
25069;SDS011;13064;48.162;11.536;2023-02-20T08:30:27;5.80;;;2.38;;
25069;SDS011;13064;48.162;11.536;2023-02-20T08:32:55;3.40;;;2.17;;
25069;SDS011;13064;48.162;11.536;2023-02-20T08:35:22;8.30;;;2.42;;
25069;SDS011;13064;48.162;11.536;2023-02-20T08:37:50;6.10;;;2.50;;
25069;SDS011;13064;48.162;11.536;2023-02-20T08:40:18;6.10;;;2.30;;
25069;SDS011;13064;48.162;11.536;2023-02-20T08:42:48;7.78;;;2.78;;
25069;SDS011;13064;48.162;11.536;2023-02-20T08:45:16;6.13;;;2.30;;
25069;SDS011;13064;48.162;11.536;2023-02-20T08:47:43;3.25;;;1.83;;
25069;SDS011;13064;48.162;11.536;2023-02-20T08:50:11;7.45;;;2.40;;
25069;SDS011;13064;48.162;11.536;2023-02-20T08:52:38;3.38;;;2.38;;
25069;SDS011;13064;48.162;11.536;2023-02-20T08:55:08;5.32;;;2.38;;
25069;SDS011;13064;48.162;11.536;2023-02-20T08:57:35;4.97;;;2.22;;
25069;SDS011;13064;48.162;11.536;2023-02-20T09:00:04;6.63;;;2.40;;
25069;SDS011;13064;48.162;11.536;2023-02-20T09:02:32;7.60;;;2.60;;
25069;SDS011;13064;48.162;11.536;2023-02-20T09:04:59;3.22;;;2.15;;
25069;SDS011;13064;48.162;11.536;2023-02-20T09:07:27;5.25;;;2.50;;
25069;SDS011;13064;48.162;11.536;2023-02-20T09:09:54;4.65;;;2.38;;
25069;SDS011;13064;48.162;11.536;2023-02-20T09:12:22;4.70;;;2.22;;
25069;SDS011;13064;48.162;11.536;2023-02-20T09:14:49;6.90;;;2.65;;
25069;SDS011;13064;48.162;11.536;2023-02-20T09:17:17;3.60;;;1.92;;
25069;SDS011;13064;48.162;11.536;2023-02-20T09:19:45;7.22;;;2.13;;
25069;SDS011;13064;48.162;11.536;2023-02-20T09:22:12;3.78;;;2.20;;
25069;SDS011;13064;48.162;11.536;2023-02-20T09:24:41;4.28;;;2.38;;
25069;SDS011;13064;48.162;11.536;2023-02-20T09:27:09;3.72;;;2.00;;
25069;SDS011;13064;48.162;11.536;2023-02-20T09:29:36;5.05;;;2.38;;
25069;SDS011;13064;48.162;11.536;2023-02-20T09:32:06;5.32;;;2.20;;
25069;SDS011;13064;48.162;11.536;2023-02-20T09:34:34;7.50;;;2.60;;
25069;SDS011;13064;48.162;11.536;2023-02-20T09:37:02;3.88;;;2.53;;
25069;SDS011;13064;48.162;11.536;2023-02-20T09:39:30;6.70;;;2.20;;
25069;SDS011;13064;48.162;11.536;2023-02-20T09:42:06;4.57;;;2.15;;
25069;SDS011;13064;48.162;11.536;2023-02-20T09:44:39;3.75;;;1.98;;
25069;SDS011;13064;48.162;11.536;2023-02-20T09:47:23;4.15;;;2.10;;
25069;SDS011;13064;48.162;11.536;2023-02-20T09:49:54;6.65;;;2.35;;
25069;SDS011;13064;48.162;11.536;2023-02-20T09:52:24;5.93;;;2.30;;
25069;SDS011;13064;48.162;11.536;2023-02-20T09:54:53;3.80;;;2.33;;
25069;SDS011;13064;48.162;11.536;2023-02-20T09:57:25;3.78;;;2.10;;
25069;SDS011;13064;48.162;11.536;2023-02-20T09:59:54;6.30;;;2.22;;
25069;SDS011;13064;48.162;11.536;2023-02-20T10:02:33;3.40;;;1.70;;
25069;SDS011;13064;48.162;11.536;2023-02-20T10:05:05;3.47;;;2.20;;
25069;SDS011;13064;48.162;11.536;2023-02-20T10:07:35;3.75;;;2.17;;
25069;SDS011;13064;48.162;11.536;2023-02-20T10:10:20;5.55;;;2.50;;
25069;SDS011;13064;48.162;11.536;2023-02-20T10:12:53;2.90;;;2.00;;
25069;SDS011;13064;48.162;11.536;2023-02-20T10:28:22;3.72;;;2.00;;
25069;SDS011;13064;48.162;11.536;2023-02-20T10:33:23;2.90;;;1.80;;
25069;SDS011;13064;48.162;11.536;2023-02-20T10:35:57;4.53;;;1.95;;
25069;SDS011;13064;48.162;11.536;2023-02-20T10:38:28;3.53;;;1.80;;
25069;SDS011;13064;48.162;11.536;2023-02-20T10:40:58;2.92;;;1.75;;
25069;SDS011;13064;48.162;11.536;2023-02-20T10:46:11;4.28;;;2.28;;
25069;SDS011;13064;48.162;11.536;2023-02-20T10:48:42;3.53;;;1.77;;
25069;SDS011;13064;48.162;11.536;2023-02-20T10:58:48;2.90;;;1.73;;
25069;SDS011;13064;48.162;11.536;2023-02-20T11:01:20;5.20;;;2.25;;
25069;SDS011;13064;48.162;11.536;2023-02-20T11:03:51;1.92;;;1.60;;
25069;SDS011;13064;48.162;11.536;2023-02-20T11:06:23;5.80;;;1.60;;
25069;SDS011;13064;48.162;11.536;2023-02-20T11:08:52;4.25;;;1.55;;
25069;SDS011;13064;48.162;11.536;2023-02-20T11:11:24;2.97;;;1.80;;
25069;SDS011;13064;48.162;11.536;2023-02-20T11:13:52;1.92;;;1.50;;
25069;SDS011;13064;48.162;11.536;2023-02-20T11:16:21;2.95;;;1.75;;
25069;SDS011;13064;48.162;11.536;2023-02-20T11:18:52;3.30;;;1.50;;
25069;SDS011;13064;48.162;11.536;2023-02-20T11:21:39;2.45;;;1.30;;
25069;SDS011;13064;48.162;11.536;2023-02-20T11:24:26;2.20;;;1.52;;
25069;SDS011;13064;48.162;11.536;2023-02-20T11:27:10;6.00;;;1.50;;
25069;SDS011;13064;48.162;11.536;2023-02-20T11:29:46;2.97;;;1.38;;
25069;SDS011;13064;48.162;11.536;2023-02-20T11:32:25;3.67;;;1.73;;
25069;SDS011;13064;48.162;11.536;2023-02-20T11:37:40;2.05;;;1.52;;
25069;SDS011;13064;48.162;11.536;2023-02-20T11:40:23;2.95;;;1.45;;
25069;SDS011;13064;48.162;11.536;2023-02-20T11:42:53;2.25;;;1.60;;
25069;SDS011;13064;48.162;11.536;2023-02-20T11:45:22;2.33;;;1.50;;
25069;SDS011;13064;48.162;11.536;2023-02-20T11:50:51;2.60;;;1.30;;
25069;SDS011;13064;48.162;11.536;2023-02-20T11:53:23;4.93;;;1.50;;
25069;SDS011;13064;48.162;11.536;2023-02-20T11:56:33;2.33;;;1.20;;
25069;SDS011;13064;48.162;11.536;2023-02-20T11:58:42;3.42;;;1.70;;
25069;SDS011;13064;48.162;11.536;2023-02-20T12:01:29;1.83;;;1.30;;
25069;SDS011;13064;48.162;11.536;2023-02-20T12:03:58;1.88;;;1.38;;
25069;SDS011;13064;48.162;11.536;2023-02-20T12:09:01;3.97;;;1.52;;
25069;SDS011;13064;48.162;11.536;2023-02-20T12:11:29;2.50;;;1.45;;
25069;SDS011;13064;48.162;11.536;2023-02-20T12:13:57;2.20;;;1.30;;
25069;SDS011;13064;48.162;11.536;2023-02-20T12:27:00;3.15;;;1.20;;
25069;SDS011;13064;48.162;11.536;2023-02-20T12:32:19;1.48;;;1.02;;
25069;SDS011;13064;48.162;11.536;2023-02-20T12:34:50;2.78;;;1.20;;
25069;SDS011;13064;48.162;11.536;2023-02-20T12:42:33;4.10;;;1.75;;
25069;SDS011;13064;48.162;11.536;2023-02-20T12:45:07;2.63;;;1.20;;
25069;SDS011;13064;48.162;11.536;2023-02-20T12:47:38;2.33;;;1.10;;
25069;SDS011;13064;48.162;11.536;2023-02-20T12:50:13;2.10;;;1.10;;
25069;SDS011;13064;48.162;11.536;2023-02-20T12:52:56;2.00;;;1.20;;
25069;SDS011;13064;48.162;11.536;2023-02-20T12:55:34;3.17;;;1.23;;
25069;SDS011;13064;48.162;11.536;2023-02-20T13:00:46;2.15;;;1.30;;
25069;SDS011;13064;48.162;11.536;2023-02-20T13:05:57;3.47;;;1.73;;
25069;SDS011;13064;48.162;11.536;2023-02-20T13:08:27;2.08;;;1.40;;
25069;SDS011;13064;48.162;11.536;2023-02-20T13:11:01;2.17;;;1.30;;
25069;SDS011;13064;48.162;11.536;2023-02-20T13:13:34;1.83;;;1.00;;
25069;SDS011;13064;48.162;11.536;2023-02-20T13:16:10;1.70;;;1.27;;
25069;SDS011;13064;48.162;11.536;2023-02-20T13:21:12;1.95;;;1.30;;
25069;SDS011;13064;48.162;11.536;2023-02-20T13:23:41;2.35;;;1.13;;
25069;SDS011;13064;48.162;11.536;2023-02-20T13:28:55;1.50;;;1.13;;
25069;SDS011;13064;48.162;11.536;2023-02-20T13:36:36;4.13;;;1.10;;
25069;SDS011;13064;48.162;11.536;2023-02-20T13:39:24;4.03;;;1.25;;
25069;SDS011;13064;48.162;11.536;2023-02-20T13:47:03;4.63;;;1.40;;
25069;SDS011;13064;48.162;11.536;2023-02-20T13:54:59;2.05;;;1.10;;
25069;SDS011;13064;48.162;11.536;2023-02-20T13:57:31;3.45;;;1.17;;
25069;SDS011;13064;48.162;11.536;2023-02-20T13:59:59;2.88;;;1.50;;
25069;SDS011;13064;48.162;11.536;2023-02-20T14:02:32;4.97;;;1.42;;
25069;SDS011;13064;48.162;11.536;2023-02-20T14:05:16;4.85;;;1.85;;
25069;SDS011;13064;48.162;11.536;2023-02-20T14:07:45;10.93;;;1.98;;
25069;SDS011;13064;48.162;11.536;2023-02-20T14:10:17;3.53;;;1.33;;
25069;SDS011;13064;48.162;11.536;2023-02-20T14:15:56;7.00;;;1.50;;
25069;SDS011;13064;48.162;11.536;2023-02-20T14:18:29;19.90;;;2.22;;
25069;SDS011;13064;48.162;11.536;2023-02-20T14:21:01;4.38;;;1.27;;
25069;SDS011;13064;48.162;11.536;2023-02-20T14:23:31;5.93;;;1.27;;
25069;SDS011;13064;48.162;11.536;2023-02-20T14:26:02;1.95;;;1.00;;
25069;SDS011;13064;48.162;11.536;2023-02-20T14:28:31;3.05;;;1.10;;
25069;SDS011;13064;48.162;11.536;2023-02-20T14:31:33;4.50;;;1.20;;
25069;SDS011;13064;48.162;11.536;2023-02-20T14:33:57;3.83;;;1.08;;
25069;SDS011;13064;48.162;11.536;2023-02-20T14:41:26;10.20;;;1.55;;
25069;SDS011;13064;48.162;11.536;2023-02-20T14:44:02;3.08;;;1.05;;
25069;SDS011;13064;48.162;11.536;2023-02-20T14:46:32;2.45;;;1.13;;
25069;SDS011;13064;48.162;11.536;2023-02-20T14:49:08;3.75;;;0.93;;
25069;SDS011;13064;48.162;11.536;2023-02-20T14:51:36;2.97;;;0.80;;
25069;SDS011;13064;48.162;11.536;2023-02-20T14:56:40;1.98;;;0.90;;
25069;SDS011;13064;48.162;11.536;2023-02-20T15:01:56;1.75;;;0.95;;
25069;SDS011;13064;48.162;11.536;2023-02-20T15:04:25;3.97;;;1.00;;
25069;SDS011;13064;48.162;11.536;2023-02-20T15:06:54;0.85;;;0.70;;
25069;SDS011;13064;48.162;11.536;2023-02-20T15:09:34;6.00;;;0.85;;
25069;SDS011;13064;48.162;11.536;2023-02-20T15:12:02;1.58;;;0.75;;
25069;SDS011;13064;48.162;11.536;2023-02-20T15:14:32;0.95;;;0.85;;
25069;SDS011;13064;48.162;11.536;2023-02-20T15:19:46;3.85;;;0.80;;
25069;SDS011;13064;48.162;11.536;2023-02-20T15:24:48;1.40;;;0.70;;
25069;SDS011;13064;48.162;11.536;2023-02-20T15:27:17;3.40;;;1.10;;
25069;SDS011;13064;48.162;11.536;2023-02-20T15:29:45;1.88;;;0.80;;
25069;SDS011;13064;48.162;11.536;2023-02-20T15:34:41;2.92;;;0.88;;
25069;SDS011;13064;48.162;11.536;2023-02-20T15:37:25;3.53;;;0.82;;
25069;SDS011;13064;48.162;11.536;2023-02-20T15:40:24;3.60;;;0.70;;
25069;SDS011;13064;48.162;11.536;2023-02-20T15:42:52;3.83;;;0.90;;
25069;SDS011;13064;48.162;11.536;2023-02-20T15:45:28;1.48;;;0.73;;
25069;SDS011;13064;48.162;11.536;2023-02-20T15:47:56;2.45;;;0.95;;
25069;SDS011;13064;48.162;11.536;2023-02-20T15:50:24;3.95;;;0.90;;
25069;SDS011;13064;48.162;11.536;2023-02-20T15:52:52;3.63;;;0.82;;
25069;SDS011;13064;48.162;11.536;2023-02-20T15:55:21;9.25;;;0.82;;
25069;SDS011;13064;48.162;11.536;2023-02-20T15:57:50;1.52;;;0.88;;
25069;SDS011;13064;48.162;11.536;2023-02-20T16:02:51;1.48;;;0.73;;
25069;SDS011;13064;48.162;11.536;2023-02-20T16:05:19;2.60;;;0.98;;
25069;SDS011;13064;48.162;11.536;2023-02-20T16:07:47;4.05;;;0.75;;
25069;SDS011;13064;48.162;11.536;2023-02-20T16:10:15;3.10;;;1.10;;
25069;SDS011;13064;48.162;11.536;2023-02-20T16:12:43;3.63;;;0.90;;
25069;SDS011;13064;48.162;11.536;2023-02-20T16:15:15;1.63;;;0.68;;
25069;SDS011;13064;48.162;11.536;2023-02-20T16:17:43;3.17;;;0.70;;
25069;SDS011;13064;48.162;11.536;2023-02-20T16:20:15;2.35;;;1.00;;
25069;SDS011;13064;48.162;11.536;2023-02-20T16:22:43;2.13;;;0.88;;
25069;SDS011;13064;48.162;11.536;2023-02-20T16:25:11;3.08;;;0.70;;
25069;SDS011;13064;48.162;11.536;2023-02-20T16:27:39;3.42;;;0.90;;
25069;SDS011;13064;48.162;11.536;2023-02-20T16:30:09;3.85;;;0.82;;
25069;SDS011;13064;48.162;11.536;2023-02-20T16:32:58;2.30;;;0.95;;
25069;SDS011;13064;48.162;11.536;2023-02-20T16:35:25;2.28;;;1.05;;
25069;SDS011;13064;48.162;11.536;2023-02-20T16:37:53;5.05;;;0.90;;
25069;SDS011;13064;48.162;11.536;2023-02-20T16:40:20;1.25;;;0.88;;
25069;SDS011;13064;48.162;11.536;2023-02-20T16:42:48;3.28;;;1.00;;
25069;SDS011;13064;48.162;11.536;2023-02-20T16:45:17;4.13;;;0.85;;
25069;SDS011;13064;48.162;11.536;2023-02-20T16:47:46;1.70;;;1.00;;
25069;SDS011;13064;48.162;11.536;2023-02-20T16:50:15;2.25;;;0.90;;
25069;SDS011;13064;48.162;11.536;2023-02-20T16:52:45;3.70;;;0.85;;
25069;SDS011;13064;48.162;11.536;2023-02-20T16:57:43;3.67;;;0.90;;
25069;SDS011;13064;48.162;11.536;2023-02-20T17:00:12;3.80;;;1.05;;
25069;SDS011;13064;48.162;11.536;2023-02-20T17:02:40;4.47;;;1.05;;
25069;SDS011;13064;48.162;11.536;2023-02-20T17:05:08;4.60;;;1.20;;